Time,TemperatureF,DewpointF,PressureIn,WindDirection,WindDirectionDegrees,WindSpeedMPH,WindSpeedGustMPH,Humidity,HourlyPrecipIn,Conditions,Clouds,dailyrainin,SoftwareType,DateUTC
2013-02-19 00:01:00,48.0,13.0,30.08,ENE,64,0.0,1.0,24,0.00,,,0.00,,2013-02-19 07:01:00,
2013-02-19 00:11:00,48.0,13.0,30.08,ENE,64,0.0,1.0,24,0.00,,,0.00,,2013-02-19 07:11:00,
2013-02-19 00:21:00,47.0,14.0,30.08,SE,138,0.0,0.0,26,0.00,,,0.00,,2013-02-19 07:21:00,
2013-02-19 00:31:00,45.0,15.0,30.08,SW,215,0.0,0.0,29,0.00,,,0.00,,2013-02-19 07:31:00,
2013-02-19 00:41:00,45.0,15.0,30.08,SW,215,0.0,0.0,29,0.00,,,0.00,,2013-02-19 07:41:00,
2013-02-19 00:52:00,44.0,14.0,30.08,SSE,156,0.0,0.0,29,0.00,,,0.00,,2013-02-19 07:52:00,
2013-02-19 01:01:00,45.0,14.0,30.08,SW,229,0.0,4.0,28,0.00,,,0.00,,2013-02-19 08:01:00,
2013-02-19 01:11:00,45.0,14.0,30.08,SW,229,0.0,4.0,28,0.00,,,0.00,,2013-02-19 08:11:00,
2013-02-19 01:21:00,46.0,14.0,30.08,SSE,165,0.0,0.0,27,0.00,,,0.00,,2013-02-19 08:21:00,
2013-02-19 01:31:00,44.0,14.0,30.08,SSE,160,0.0,0.0,29,0.00,,,0.00,,2013-02-19 08:31:00,
2013-02-19 01:41:00,44.0,14.0,30.08,SSE,160,0.0,0.0,29,0.00,,,0.00,,2013-02-19 08:41:00,
2013-02-19 01:52:00,46.0,12.0,30.07,ESE,122,0.0,1.0,25,0.00,,,0.00,,2013-02-19 08:52:00,
2013-02-19 02:01:00,45.0,12.0,30.06,SE,146,4.0,5.0,26,0.00,,,0.00,,2013-02-19 09:01:00,
2013-02-19 02:11:00,45.0,12.0,30.06,SE,146,4.0,5.0,26,0.00,,,0.00,,2013-02-19 09:11:00,
2013-02-19 02:21:00,49.0,11.0,30.06,ESE,122,3.0,7.0,21,0.00,,,0.00,,2013-02-19 09:21:00,
2013-02-19 02:31:00,49.0,11.0,30.06,SE,140,5.0,8.0,21,0.00,,,0.00,,2013-02-19 09:31:00,
2013-02-19 02:41:00,49.0,11.0,30.06,SE,140,5.0,8.0,21,0.00,,,0.00,,2013-02-19 09:41:00,
2013-02-19 02:52:00,48.0,12.0,30.05,SE,146,3.0,6.0,23,0.00,,,0.00,,2013-02-19 09:52:00,
2013-02-19 03:01:00,46.0,11.0,30.06,SSE,156,2.0,5.0,24,0.00,,,0.00,,2013-02-19 10:01:00,
2013-02-19 03:21:00,44.0,13.0,30.05,West,279,0.0,0.0,28,0.00,,,0.00,,2013-02-19 10:21:00,
2013-02-19 03:31:00,43.0,12.0,30.05,SW,221,0.0,0.0,28,0.00,,,0.00,,2013-02-19 10:31:00,
2013-02-19 03:41:00,43.0,12.0,30.05,SW,221,0.0,0.0,28,0.00,,,0.00,,2013-02-19 10:41:00,
2013-02-19 03:52:00,44.0,14.0,30.04,SW,214,0.0,3.0,29,0.00,,,0.00,,2013-02-19 10:52:00,
2013-02-19 04:01:00,42.0,12.0,30.04,SW,220,0.0,0.0,29,0.00,,,0.00,,2013-02-19 11:01:00,
2013-02-19 04:11:00,42.0,12.0,30.04,SW,220,0.0,0.0,29,0.00,,,0.00,,2013-02-19 11:11:00,
2013-02-19 04:21:00,42.0,13.0,30.03,SE,146,0.0,1.0,30,0.00,,,0.00,,2013-02-19 11:21:00,
2013-02-19 04:31:00,42.0,13.0,30.03,SE,142,0.0,2.0,30,0.00,,,0.00,,2013-02-19 11:31:00,
2013-02-19 04:42:00,42.0,13.0,30.03,SE,142,0.0,2.0,30,0.00,,,0.00,,2013-02-19 11:42:00,
2013-02-19 04:52:00,42.0,13.0,30.02,South,173,0.0,0.0,30,0.00,,,0.00,,2013-02-19 11:52:00,
2013-02-19 05:01:00,42.0,13.0,30.02,South,175,0.0,0.0,30,0.00,,,0.00,,2013-02-19 12:01:00,
2013-02-19 05:12:00,42.0,13.0,30.02,South,175,0.0,0.0,30,0.00,,,0.00,,2013-02-19 12:12:00,
2013-02-19 05:21:00,42.0,13.0,30.01,SSW,210,0.0,0.0,30,0.00,,,0.00,,2013-02-19 12:21:00,
2013-02-19 05:32:00,42.0,14.0,30.02,SSE,155,0.0,0.0,31,0.00,,,0.00,,2013-02-19 12:32:00,
2013-02-19 05:41:00,42.0,14.0,30.02,SSE,155,0.0,0.0,31,0.00,,,0.00,,2013-02-19 12:41:00,
2013-02-19 05:52:00,41.0,14.0,30.03,SW,229,0.0,0.0,33,0.00,,,0.00,,2013-02-19 12:52:00,
2013-02-19 06:01:00,41.0,14.0,30.03,SW,229,0.0,0.0,33,0.00,,,0.00,,2013-02-19 13:01:00,
2013-02-19 06:11:00,41.0,14.0,30.03,SW,229,0.0,0.0,33,0.00,,,0.00,,2013-02-19 13:11:00,
2013-02-19 06:22:00,43.0,13.0,30.05,SSE,153,0.0,4.0,29,0.00,,,0.00,,2013-02-19 13:22:00,
2013-02-19 06:31:00,44.0,13.0,30.04,SE,139,0.0,0.0,28,0.00,,,0.00,,2013-02-19 13:31:00,
2013-02-19 06:41:00,44.0,13.0,30.04,SE,139,0.0,0.0,28,0.00,,,0.00,,2013-02-19 13:41:00,
2013-02-19 06:52:00,42.0,14.0,30.05,SW,226,0.0,0.0,32,0.00,,,0.00,,2013-02-19 13:52:00,
2013-02-19 07:01:00,43.0,14.0,30.05,WSW,240,1.0,4.0,31,0.00,,,0.00,,2013-02-19 14:01:00,
2013-02-19 07:11:00,43.0,14.0,30.05,WSW,240,1.0,4.0,31,0.00,,,0.00,,2013-02-19 14:11:00,
2013-02-19 07:21:00,42.0,14.0,30.05,SSE,161,0.0,0.0,31,0.00,,,0.00,,2013-02-19 14:21:00,
2013-02-19 07:32:00,42.0,14.0,30.05,SSW,209,0.0,0.0,31,0.00,,,0.00,,2013-02-19 14:32:00,
2013-02-19 07:41:00,42.0,14.0,30.05,SSW,209,0.0,0.0,31,0.00,,,0.00,,2013-02-19 14:41:00,
2013-02-19 07:52:00,46.0,15.0,30.04,SSW,204,0.0,0.0,28,0.00,,,0.00,,2013-02-19 14:52:00,
2013-02-19 08:01:00,45.0,14.0,30.04,SSW,205,0.0,0.0,28,0.00,,,0.00,,2013-02-19 15:01:00,
2013-02-19 08:11:00,45.0,14.0,30.04,SSW,205,0.0,0.0,28,0.00,,,0.00,,2013-02-19 15:11:00,
2013-02-19 08:21:00,48.0,15.0,30.04,SE,142,0.0,0.0,26,0.00,,,0.00,,2013-02-19 15:21:00,
2013-02-19 08:31:00,48.0,15.0,30.04,WNW,294,0.0,0.0,26,0.00,,,0.00,,2013-02-19 15:31:00,
2013-02-19 08:41:00,48.0,15.0,30.04,WNW,294,0.0,0.0,26,0.00,,,0.00,,2013-02-19 15:41:00,
2013-02-19 08:52:00,48.0,15.0,30.04,West,277,0.0,3.0,26,0.00,,,0.00,,2013-02-19 15:52:00,
2013-02-19 09:01:00,49.0,15.0,30.04,NNE,22,0.0,4.0,25,0.00,,,0.00,,2013-02-19 16:01:00,
2013-02-19 09:11:00,49.0,15.0,30.04,NNE,22,0.0,4.0,25,0.00,,,0.00,,2013-02-19 16:11:00,
2013-02-19 09:21:00,53.0,13.0,30.04,East,98,6.0,7.0,20,0.00,,,0.00,,2013-02-19 16:21:00,
2013-02-19 09:31:00,55.0,12.0,30.03,ESE,105,6.0,12.0,18,0.00,,,0.00,,2013-02-19 16:31:00,
2013-02-19 09:41:00,55.0,12.0,30.03,ESE,105,6.0,12.0,18,0.00,,,0.00,,2013-02-19 16:41:00,
2013-02-19 09:52:00,56.0,12.0,30.03,East,86,5.0,11.0,17,0.00,,,0.00,,2013-02-19 16:52:00,
2013-02-19 10:01:00,57.0,13.0,30.03,ENE,78,4.0,7.0,17,0.00,,,0.00,,2013-02-19 17:01:00,
2013-02-19 10:11:00,57.0,13.0,30.03,ENE,78,4.0,7.0,17,0.00,,,0.00,,2013-02-19 17:11:00,
2013-02-19 10:21:00,56.0,13.0,30.02,NE,49,7.0,10.0,18,0.00,,,0.00,,2013-02-19 17:21:00,
2013-02-19 10:31:00,56.0,16.0,30.02,North,4,3.0,6.0,20,0.00,,,0.00,,2013-02-19 17:31:00,
2013-02-19 10:41:00,56.0,16.0,30.02,North,4,3.0,6.0,20,0.00,,,0.00,,2013-02-19 17:41:00,
2013-02-19 10:52:00,56.0,18.0,30.01,ESE,108,4.0,6.0,22,0.00,,,0.00,,2013-02-19 17:52:00,
2013-02-19 11:01:00,59.0,19.0,30.00,SE,141,9.0,17.0,21,0.00,,,0.00,,2013-02-19 18:01:00,
2013-02-19 11:11:00,59.0,19.0,30.00,SE,141,9.0,17.0,21,0.00,,,0.00,,2013-02-19 18:11:00,
2013-02-19 11:21:00,60.0,20.0,30.00,SE,139,11.0,20.0,21,0.00,,,0.00,,2013-02-19 18:21:00,
2013-02-19 11:31:00,61.0,21.0,30.00,SE,139,16.0,28.0,21,0.00,,,0.00,,2013-02-19 18:31:00,
2013-02-19 11:41:00,62.0,22.0,29.99,SSE,162,13.0,21.0,21,0.00,,,0.00,,2013-02-19 18:41:00,
2013-02-19 11:52:00,62.0,22.0,29.99,SSE,162,13.0,21.0,21,0.00,,,0.00,,2013-02-19 18:52:00,
2013-02-19 12:01:00,63.0,21.0,29.99,SSW,207,12.0,21.0,20,0.00,,,0.00,,2013-02-19 19:01:00,
2013-02-19 12:11:00,63.0,21.0,29.99,SSW,207,12.0,21.0,20,0.00,,,0.00,,2013-02-19 19:11:00,
2013-02-19 12:21:00,62.0,22.0,29.98,SE,142,14.0,21.0,21,0.00,,,0.00,,2013-02-19 19:21:00,
2013-02-19 12:31:00,63.0,20.0,29.98,SSE,153,7.0,22.0,19,0.00,,,0.00,,2013-02-19 19:31:00,
2013-02-19 12:41:00,63.0,20.0,29.98,SSE,153,7.0,22.0,19,0.00,,,0.00,,2013-02-19 19:41:00,
2013-02-19 12:52:00,64.0,21.0,29.96,South,176,7.0,21.0,19,0.00,,,0.00,,2013-02-19 19:52:00,
2013-02-19 13:01:00,64.0,21.0,29.96,WSW,242,10.0,15.0,19,0.00,,,0.00,,2013-02-19 20:01:00,
2013-02-19 13:11:00,64.0,21.0,29.96,WSW,242,10.0,15.0,19,0.00,,,0.00,,2013-02-19 20:11:00,
2013-02-19 13:21:00,64.0,20.0,29.95,SE,142,15.0,27.0,18,0.00,,,0.00,,2013-02-19 20:21:00,
2013-02-19 13:31:00,64.0,21.0,29.93,SE,138,9.0,26.0,19,0.00,,,0.00,,2013-02-19 20:31:00,
2013-02-19 13:41:00,64.0,21.0,29.93,SE,138,9.0,26.0,19,0.00,,,0.00,,2013-02-19 20:41:00,
2013-02-19 13:52:00,65.0,19.0,29.93,NNE,30,13.0,23.0,17,0.00,,,0.00,,2013-02-19 20:52:00,
2013-02-19 14:01:00,64.0,20.0,29.92,NE,38,12.0,26.0,18,0.00,,,0.00,,2013-02-19 21:01:00,
2013-02-19 14:11:00,64.0,20.0,29.92,NE,38,12.0,26.0,18,0.00,,,0.00,,2013-02-19 21:11:00,
2013-02-19 14:21:00,63.0,22.0,29.92,SW,226,16.0,25.0,21,0.00,,,0.00,,2013-02-19 21:21:00,
2013-02-19 14:31:00,63.0,22.0,29.92,SSW,197,12.0,23.0,21,0.00,,,0.00,,2013-02-19 21:31:00,
2013-02-19 14:42:00,63.0,22.0,29.92,SSW,197,12.0,23.0,21,0.00,,,0.00,,2013-02-19 21:42:00,
2013-02-19 14:52:00,64.0,23.0,29.91,North,355,8.0,25.0,21,0.00,,,0.00,,2013-02-19 21:52:00,
2013-02-19 15:01:00,64.0,24.0,29.91,SE,143,10.0,20.0,22,0.00,,,0.00,,2013-02-19 22:01:00,
2013-02-19 15:11:00,64.0,24.0,29.91,SE,143,10.0,20.0,22,0.00,,,0.00,,2013-02-19 22:11:00,
2013-02-19 15:21:00,63.0,24.0,29.90,SSE,148,9.0,20.0,22,0.00,,,0.00,,2013-02-19 22:21:00,
2013-02-19 15:31:00,63.0,25.0,29.90,SSE,150,10.0,23.0,23,0.00,,,0.00,,2013-02-19 22:31:00,
2013-02-19 15:41:00,63.0,25.0,29.90,SSE,150,10.0,23.0,23,0.00,,,0.00,,2013-02-19 22:41:00,
2013-02-19 15:52:00,63.0,24.0,29.88,NNE,30,5.0,25.0,22,0.00,,,0.00,,2013-02-19 22:52:00,
2013-02-19 16:01:00,63.0,27.0,29.88,SSW,193,5.0,16.0,25,0.00,,,0.00,,2013-02-19 23:01:00,
2013-02-19 16:11:00,63.0,27.0,29.88,SSW,193,5.0,16.0,25,0.00,,,0.00,,2013-02-19 23:11:00,
2013-02-19 16:21:00,63.0,28.0,29.88,WSW,245,9.0,21.0,26,0.00,,,0.00,,2013-02-19 23:21:00,
2013-02-19 16:31:00,62.0,27.0,29.88,SSW,200,13.0,25.0,26,0.00,,,0.00,,2013-02-19 23:31:00,
2013-02-19 16:41:00,62.0,27.0,29.88,SSW,200,13.0,25.0,26,0.00,,,0.00,,2013-02-19 23:41:00,
2013-02-19 16:52:00,62.0,28.0,29.87,South,173,10.0,18.0,27,0.00,,,0.00,,2013-02-19 23:52:00,
2013-02-19 17:01:00,62.0,29.0,29.87,SSW,200,11.0,20.0,29,0.00,,,0.00,,2013-02-20 00:01:00,
2013-02-19 17:11:00,62.0,29.0,29.87,SSW,200,11.0,20.0,29,0.00,,,0.00,,2013-02-20 00:11:00,
2013-02-19 17:21:00,60.0,29.0,29.88,SE,143,11.0,19.0,31,0.00,,,0.00,,2013-02-20 00:21:00,
2013-02-19 17:31:00,60.0,27.0,29.87,SE,141,8.0,18.0,28,0.00,,,0.00,,2013-02-20 00:31:00,
2013-02-19 17:41:00,60.0,27.0,29.87,SE,141,8.0,18.0,28,0.00,,,0.00,,2013-02-20 00:41:00,
2013-02-19 17:52:00,59.0,26.0,29.87,SSE,152,10.0,18.0,28,0.00,,,0.00,,2013-02-20 00:52:00,
2013-02-19 18:02:00,59.0,26.0,29.88,South,170,5.0,20.0,28,0.00,,,0.00,,2013-02-20 01:02:00,
2013-02-19 18:11:00,59.0,26.0,29.88,South,170,5.0,20.0,28,0.00,,,0.00,,2013-02-20 01:11:00,
2013-02-19 18:21:00,58.0,27.0,29.87,SSE,162,10.0,16.0,30,0.00,,,0.00,,2013-02-20 01:21:00,
2013-02-19 18:31:00,57.0,27.0,29.87,SSE,149,12.0,22.0,31,0.00,,,0.00,,2013-02-20 01:31:00,
2013-02-19 18:41:00,57.0,27.0,29.87,SSE,149,12.0,22.0,31,0.00,,,0.00,,2013-02-20 01:41:00,
2013-02-19 18:52:00,56.0,27.0,29.88,SSE,148,1.0,6.0,32,0.00,,,0.00,,2013-02-20 01:52:00,
2013-02-19 19:01:00,55.0,32.0,29.87,East,89,4.0,9.0,42,0.00,,,0.00,,2013-02-20 02:01:00,
2013-02-19 19:11:00,55.0,32.0,29.87,East,89,4.0,9.0,42,0.00,,,0.00,,2013-02-20 02:11:00,
2013-02-19 19:21:00,53.0,33.0,29.87,East,91,5.0,11.0,47,0.00,,,0.00,,2013-02-20 02:21:00,
2013-02-19 19:31:00,53.0,33.0,29.87,ENE,67,4.0,13.0,46,0.00,,,0.00,,2013-02-20 02:31:00,
2013-02-19 19:41:00,53.0,33.0,29.87,ENE,67,4.0,13.0,46,0.00,,,0.00,,2013-02-20 02:41:00,
2013-02-19 19:52:00,52.0,33.0,29.86,East,99,3.0,10.0,49,0.00,,,0.00,,2013-02-20 02:52:00,
2013-02-19 20:01:00,51.0,34.0,29.86,ESE,111,1.0,3.0,51,0.00,,,0.00,,2013-02-20 03:01:00,
2013-02-19 20:11:00,51.0,34.0,29.86,ESE,111,1.0,3.0,51,0.00,,,0.00,,2013-02-20 03:11:00,
2013-02-19 20:21:00,50.0,34.0,29.86,SE,132,0.0,5.0,53,0.00,,,0.00,,2013-02-20 03:21:00,
2013-02-19 20:31:00,49.0,33.0,29.86,SE,142,0.0,0.0,54,0.00,,,0.00,,2013-02-20 03:31:00,
2013-02-19 20:41:00,49.0,33.0,29.86,SE,142,0.0,0.0,54,0.00,,,0.00,,2013-02-20 03:41:00,
2013-02-19 20:52:00,51.0,33.0,29.86,East,82,3.0,18.0,49,0.00,,,0.00,,2013-02-20 03:52:00,
2013-02-19 21:01:00,50.0,35.0,29.85,ENE,64,5.0,7.0,56,0.00,,,0.00,,2013-02-20 04:01:00,
2013-02-19 21:11:00,50.0,35.0,29.85,ENE,64,5.0,7.0,56,0.00,,,0.00,,2013-02-20 04:11:00,
2013-02-19 21:21:00,50.0,34.0,29.85,ENE,78,5.0,6.0,55,0.00,,,0.00,,2013-02-20 04:21:00,
2013-02-19 21:31:00,49.0,34.0,29.85,NE,50,2.0,7.0,57,0.00,,,0.00,,2013-02-20 04:31:00,
2013-02-19 21:41:00,49.0,34.0,29.85,NE,50,2.0,7.0,57,0.00,,,0.00,,2013-02-20 04:41:00,
2013-02-19 21:52:00,50.0,33.0,29.85,West,281,0.0,7.0,52,0.00,,,0.00,,2013-02-20 04:52:00,
2013-02-19 22:01:00,49.0,31.0,29.86,West,281,1.0,3.0,50,0.00,,,0.00,,2013-02-20 05:01:00,
2013-02-19 22:12:00,49.0,31.0,29.86,West,281,1.0,3.0,50,0.00,,,0.00,,2013-02-20 05:12:00,
2013-02-19 22:22:00,49.0,29.0,29.85,NW,322,0.0,4.0,45,0.00,,,0.00,,2013-02-20 05:22:00,
2013-02-19 22:31:00,49.0,27.0,29.86,WSW,249,0.0,2.0,42,0.00,,,0.00,,2013-02-20 05:31:00,
2013-02-19 22:42:00,49.0,27.0,29.86,WSW,249,0.0,2.0,42,0.00,,,0.00,,2013-02-20 05:42:00,
2013-02-19 22:52:00,49.0,22.0,29.86,West,267,8.0,12.0,34,0.00,,,0.00,,2013-02-20 05:52:00,
2013-02-19 23:01:00,51.0,21.0,29.86,SE,130,2.0,16.0,30,0.00,,,0.00,,2013-02-20 06:01:00,
2013-02-19 23:11:00,51.0,15.0,29.85,ESE,107,6.0,14.0,23,0.00,,,0.00,,2013-02-20 06:11:00,
2013-02-19 23:21:00,51.0,15.0,29.85,ESE,107,6.0,14.0,23,0.00,,,0.00,,2013-02-20 06:21:00,
2013-02-19 23:31:00,50.0,14.0,29.85,SE,128,0.0,11.0,23,0.00,,,0.00,,2013-02-20 06:31:00,
2013-02-19 23:41:00,50.0,14.0,29.85,SE,128,0.0,11.0,23,0.00,,,0.00,,2013-02-20 06:41:00,
2013-02-19 23:52:00,50.0,14.0,29.84,East,83,2.0,15.0,23,0.00,,,0.00,,2013-02-20 06:52:00,